Pino Ladra — ECGJ — position and weather

sailwx.info

Track history (hours):
 
Tides and Currents Weather Stations Pressure Air Temp Water Temp Dewpoint Dewpoint Depression Visibility Wind Speed Wind Dir Waves Ship Positions

Pino Ladra

Last reported at 2016-Sep-19 09:03 UTC. Time now 2016-Sep-26 18:57 UTC.
Position N 43°58' W 007°32'.

Length 32 m; draft 5 m.

Type: Fishing. MMSI: 224134550.

Date/timePositionNaut miles runAvg speedWind from/ knotsBaromVisibWave heightAir tempDewpointWater temp
2016-Sep-19 09:03N 43°58' W 007°32'1 0.2
2016-Sep-19 03:32N 43°58' W 007°33'3 2.9
2016-Sep-19 02:25N 43°55' W 007°31'5 2.6
2016-Sep-19 00:33N 43°50' W 007°29'  
2016-Sep-16 15:32N 43°45' W 007°30'  
2016-Sep-11 22:33N 43°45' W 007°31'6 6.0
2016-Sep-11 21:33N 43°41' W 007°36'2 0.0
2016-Sep-09 18:33N 43°43' W 007°35'7 3.5
2016-Sep-09 16:33N 43°46' W 007°27'3 3.3
2016-Sep-09 15:33N 43°47' W 007°31'3 3.3
2016-Sep-09 14:33N 43°48' W 007°36'3 3.3
2016-Sep-09 13:34N 43°50' W 007°39'  
Track history (hours):
 
Tides and Currents Weather Stations Pressure Air Temp Water Temp Dewpoint Dewpoint Depression Visibility Wind Speed Wind Dir Waves Ship Positions

Pino Ladra

Last reported at 2016-Sep-19 09:03 UTC. Time now 2016-Sep-26 18:57 UTC.
Position N 43°58' W 007°32'.

Length 32 m; draft 5 m.

Type: Fishing. MMSI: 224134550.

Date/timePositionNaut miles runAvg speedWind from/ knotsBaromVisibWave heightAir tempDewpointWater temp
2016-Sep-19 09:03N 43°58' W 007°32'1 0.2
2016-Sep-19 03:32N 43°58' W 007°33'3 2.9
2016-Sep-19 02:25N 43°55' W 007°31'5 2.6
2016-Sep-19 00:33N 43°50' W 007°29'  
2016-Sep-16 15:32N 43°45' W 007°30'  
2016-Sep-11 22:33N 43°45' W 007°31'6 6.0
2016-Sep-11 21:33N 43°41' W 007°36'2 0.0
2016-Sep-09 18:33N 43°43' W 007°35'7 3.5
2016-Sep-09 16:33N 43°46' W 007°27'3 3.3
2016-Sep-09 15:33N 43°47' W 007°31'3 3.3
2016-Sep-09 14:33N 43°48' W 007°36'3 3.3
2016-Sep-09 13:34N 43°50' W 007°39'  

Dump ship's entire track history